createdAt,value
2022-09-20T00:01:28.623Z,102512.47
2022-09-20T00:03:57.554Z,102514.91
2022-09-20T00:06:27.180Z,102514.19
2022-09-20T00:08:54.213Z,102509.09
2022-09-20T00:11:23.659Z,102517.25
2022-09-20T00:13:52.972Z,102509.34
2022-09-20T00:16:24.467Z,102518.09
2022-09-20T00:18:52.456Z,102509.56
2022-09-20T00:21:22.225Z,102514.16
2022-09-20T00:23:48.842Z,102513.53
2022-09-20T00:26:15.461Z,102510.38
2022-09-20T00:28:42.111Z,102504.19
2022-09-20T00:31:08.636Z,102509.81
2022-09-20T00:33:53.811Z,102500.41
2022-09-20T00:36:20.724Z,102510.19
2022-09-20T00:38:47.497Z,102504.97
2022-09-20T00:41:14.272Z,102502.47
2022-09-20T00:43:44.897Z,102511.03
2022-09-20T00:46:24.553Z,102510.03
2022-09-20T00:48:56.099Z,102513.78
2022-09-20T00:51:29.796Z,102515.44
2022-09-20T00:53:58.725Z,102511.53
2022-09-20T00:56:29.583Z,102510.59
2022-09-20T00:59:30.191Z,102519.50
2022-09-20T01:02:03.058Z,102521.16
2022-09-20T01:04:30.334Z,102512.25
2022-09-20T01:07:01.516Z,102506.66
2022-09-20T01:09:28.114Z,102516.44
2022-09-20T01:11:57.688Z,102508.47
2022-09-20T01:14:26.511Z,102510.69
2022-09-20T01:16:56.091Z,102502.69
2022-09-20T01:19:43.330Z,102504.56
2022-09-20T01:22:25.964Z,102503.25
2022-09-20T01:25:16.093Z,102507.34
2022-09-20T01:27:45.652Z,102507.34
2022-09-20T01:30:17.488Z,102503.91
2022-09-20T01:33:11.333Z,102502.88
2022-09-20T01:35:41.422Z,102500.16
2022-09-20T01:38:23.304Z,102501.03
2022-09-20T01:40:52.686Z,102504.63
2022-09-20T01:43:40.864Z,102508.28
2022-09-20T01:46:29.916Z,102496.53
2022-09-20T01:49:11.088Z,102507.38
2022-09-20T01:52:03.049Z,102499.41
2022-09-20T01:54:58.868Z,102505.59
2022-09-20T01:57:53.299Z,102490.19
2022-09-20T02:00:34.929Z,102502.41
2022-09-20T02:03:29.277Z,102500.59
2022-09-20T02:06:17.738Z,102496.06
2022-09-20T02:09:09.478Z,102503.13
2022-09-20T02:11:50.925Z,102496.06
2022-09-20T02:14:45.905Z,102496.94
2022-09-20T02:17:32.749Z,102500.03
2022-09-20T02:20:17.461Z,102498.44
2022-09-20T02:22:50.133Z,102497.66
2022-09-20T02:25:41.374Z,102496.22
2022-09-20T02:28:11.031Z,102491.69
2022-09-20T02:31:12.878Z,102498.16
2022-09-20T02:34:00.832Z,102499.75
2022-09-20T02:36:38.141Z,102499.22
2022-09-20T02:39:16.398Z,102494.06
2022-09-20T02:41:57.762Z,102493.66
2022-09-20T02:44:59.125Z,102505.22
2022-09-20T02:47:33.860Z,102494.16
2022-09-20T02:50:26.919Z,102503.00
2022-09-20T02:53:12.019Z,102497.09
2022-09-20T02:56:15.520Z,102500.63
2022-09-20T02:59:10.218Z,102500.69
2022-09-20T03:02:09.054Z,102502.41
2022-09-20T03:04:53.521Z,102494.56
2022-09-20T03:07:37.784Z,102500.09
2022-09-20T03:10:25.666Z,102500.38
2022-09-20T03:13:10.998Z,102510.91
2022-09-20T03:15:45.655Z,102502.34
2022-09-20T03:18:16.737Z,102505.16
2022-09-20T03:21:05.326Z,102504.09
2022-09-20T03:24:02.689Z,102512.13
2022-09-20T03:26:43.516Z,102506.66
2022-09-20T03:29:43.037Z,102504.81
2022-09-20T03:32:20.623Z,102501.03
2022-09-20T03:34:56.256Z,102509.84
2022-09-20T03:37:58.392Z,102509.00
2022-09-20T03:40:46.387Z,102510.72
2022-09-20T03:43:40.776Z,102508.41
2022-09-20T03:46:36.760Z,102502.75
2022-09-20T03:49:32.041Z,102510.31
2022-09-20T03:52:15.594Z,102507.09
2022-09-20T03:55:04.873Z,102514.59
2022-09-20T03:57:52.704Z,102513.25
2022-09-20T04:01:04.183Z,102517.34
2022-09-20T04:03:44.672Z,102521.84
2022-09-20T04:06:33.309Z,102524.50
2022-09-20T04:09:08.837Z,102518.34
2022-09-20T04:11:51.716Z,102512.94
2022-09-20T04:14:43.391Z,102523.59
2022-09-20T04:17:39.309Z,102519.47
2022-09-20T04:20:32.526Z,102522.28
2022-09-20T04:23:05.560Z,102521.63
2022-09-20T04:25:44.453Z,102516.56
2022-09-20T04:28:21.716Z,102515.00
2022-09-20T04:30:55.299Z,102515.34
2022-09-20T04:33:30.132Z,102519.88
2022-09-20T04:36:28.716Z,102527.25
2022-09-20T04:39:33.127Z,102520.75
2022-09-20T04:42:32.870Z,102517.81
2022-09-20T04:46:00.894Z,102515.09
2022-09-20T04:48:36.468Z,102523.41
2022-09-20T04:51:21.442Z,102524.59
2022-09-20T04:53:57.042Z,102521.31
2022-09-20T04:56:41.440Z,102525.22
2022-09-20T04:59:10.393Z,102528.22
2022-09-20T05:02:03.448Z,102533.78
2022-09-20T05:05:04.759Z,102529.59
2022-09-20T05:08:21.148Z,102532.66
2022-09-20T05:11:12.657Z,102533.22
2022-09-20T05:14:02.417Z,102544.06
2022-09-20T05:16:55.397Z,102545.19
2022-09-20T05:19:33.925Z,102536.66
2022-09-20T05:22:26.084Z,102545.31
2022-09-20T05:25:07.811Z,102540.94
2022-09-20T05:27:43.462Z,102539.25
2022-09-20T05:30:34.533Z,102544.56
2022-09-20T05:33:43.663Z,102548.19
2022-09-20T05:36:23.479Z,102562.28
2022-09-20T05:39:09.693Z,102563.09
2022-09-20T05:41:39.181Z,102565.78
2022-09-20T05:44:43.152Z,102574.22
2022-09-20T05:47:24.886Z,102572.81
2022-09-20T05:50:29.792Z,102578.44
2022-09-20T05:53:17.341Z,102586.28
2022-09-20T05:55:53.176Z,102578.09
2022-09-20T05:58:50.778Z,102582.41
2022-09-20T06:01:26.775Z,102586.53
2022-09-20T06:04:14.325Z,102589.78
2022-09-20T06:07:02.552Z,102579.81
2022-09-20T06:10:00.113Z,102583.09
2022-09-20T06:12:37.966Z,102579.50
2022-09-20T06:15:48.698Z,102576.63
2022-09-20T06:18:29.317Z,102553.56
2022-09-20T06:21:32.968Z,102574.56
2022-09-20T06:24:01.449Z,102563.84
2022-09-20T06:26:34.309Z,102557.53
2022-09-20T06:29:05.887Z,102563.94
2022-09-20T06:31:32.741Z,102566.59
2022-09-20T06:34:04.474Z,102567.38
2022-09-20T06:36:52.106Z,102569.16
2022-09-20T06:39:50.336Z,102572.22
2022-09-20T06:42:23.338Z,102578.03
2022-09-20T06:44:53.299Z,102574.59
2022-09-20T06:47:19.840Z,102581.41
2022-09-20T06:49:47.888Z,102575.03
2022-09-20T06:52:16.852Z,102574.69
2022-09-20T06:54:46.128Z,102581.66
2022-09-20T06:57:16.390Z,102586.91
2022-09-20T06:59:42.994Z,102593.22
2022-09-20T07:02:12.002Z,102599.97
2022-09-20T07:04:38.489Z,102604.22
2022-09-20T07:07:09.466Z,102608.56
2022-09-20T07:09:36.572Z,102613.69
2022-09-20T07:12:03.118Z,102619.56
2022-09-20T07:14:29.975Z,102615.19
2022-09-20T07:16:56.763Z,102629.78
2022-09-20T07:19:23.508Z,102621.09
2022-09-20T07:21:50.046Z,102629.00
2022-09-20T07:24:16.716Z,102637.03
2022-09-20T07:27:01.009Z,102635.19
2022-09-20T07:29:28.247Z,102624.69
2022-09-20T07:31:56.141Z,102637.56
2022-09-20T07:34:22.633Z,102634.66
2022-09-20T07:36:50.240Z,102636.75
2022-09-20T07:39:17.455Z,102645.38
2022-09-20T07:41:50.623Z,102640.19
2022-09-20T07:44:21.539Z,102643.66
2022-09-20T07:46:59.384Z,102640.06
2022-09-20T07:49:29.921Z,102639.97
2022-09-20T07:51:56.782Z,102637.19
2022-09-20T07:54:23.508Z,102635.94
2022-09-20T07:56:50.335Z,102642.81
2022-09-20T07:59:17.109Z,102641.72
2022-09-20T08:01:44.181Z,102636.47
2022-09-20T08:04:11.199Z,102646.75
2022-09-20T08:06:43.054Z,102651.06
2022-09-20T08:09:11.473Z,102656.03
2022-09-20T08:11:39.415Z,102653.94
2022-09-20T08:14:17.873Z,102656.53
2022-09-20T08:16:47.692Z,102659.75
2022-09-20T08:19:22.852Z,102660.94
2022-09-20T08:21:51.047Z,102662.59
2022-09-20T08:24:17.677Z,102662.66
2022-09-20T08:26:44.773Z,102666.19
2022-09-20T08:29:11.674Z,102667.69
2022-09-20T08:31:42.153Z,102671.91
2022-09-20T08:34:11.479Z,102672.72
2022-09-20T08:36:49.962Z,102674.22
2022-09-20T08:42:12.884Z,102676.81
2022-09-20T08:45:05.231Z,102697.19
2022-09-20T08:47:36.091Z,102701.00
2022-09-20T08:50:09.789Z,102707.41
2022-09-20T08:52:40.038Z,102712.00
2022-09-20T08:55:36.494Z,102716.28
2022-09-20T08:58:08.234Z,102714.88
2022-09-20T09:00:36.800Z,102711.81
2022-09-20T09:03:12.377Z,102702.44
2022-09-20T09:05:45.141Z,102698.19
2022-09-20T09:08:21.212Z,102706.69
2022-09-20T09:10:57.514Z,102701.56
2022-09-20T09:13:36.137Z,102690.47
2022-09-20T09:16:10.730Z,102673.78
2022-09-20T09:18:40.681Z,102674.63
2022-09-20T09:21:10.374Z,102668.84
2022-09-20T09:23:45.934Z,102670.19
2022-09-20T09:26:21.789Z,102677.75
2022-09-20T09:29:23.564Z,102678.00
2022-09-20T09:31:52.864Z,102680.09
2022-09-20T09:34:30.941Z,102676.56
2022-09-20T09:36:58.841Z,102680.06
2022-09-20T09:39:33.814Z,102684.00
2022-09-20T09:42:01.018Z,102681.19
2022-09-20T09:44:33.994Z,102682.03
2022-09-20T09:47:01.298Z,102687.84
2022-09-20T09:49:37.175Z,102684.16
2022-09-20T09:52:06.615Z,102685.72
2022-09-20T09:54:39.216Z,102689.59
2022-09-20T09:57:20.889Z,102691.22
2022-09-20T09:59:52.620Z,102693.50
2022-09-20T10:02:48.034Z,102689.25
2022-09-20T10:05:38.022Z,102679.19
2022-09-20T10:08:28.984Z,102687.22
2022-09-20T10:11:24.944Z,102684.28
2022-09-20T10:14:05.520Z,102681.88
2022-09-20T10:17:04.721Z,102684.47
2022-09-20T10:19:43.188Z,102686.78
2022-09-20T10:22:35.080Z,102680.25
2022-09-20T10:25:25.108Z,102682.91
2022-09-20T10:28:15.838Z,102678.81
2022-09-20T10:31:24.934Z,102679.25
2022-09-20T10:34:07.453Z,102681.75
2022-09-20T10:36:57.240Z,102676.06
2022-09-20T10:39:33.407Z,102674.34
2022-09-20T10:42:42.150Z,102671.91
2022-09-20T10:45:59.594Z,102676.63
2022-09-20T10:48:32.467Z,102687.22
2022-09-20T10:51:12.952Z,102679.31
2022-09-20T10:53:59.946Z,102684.16
2022-09-20T10:56:26.526Z,102682.59
2022-09-20T10:59:13.125Z,102681.31
2022-09-20T11:02:15.655Z,102677.09
2022-09-20T11:05:02.421Z,102676.72
2022-09-20T11:07:56.572Z,102681.91
2022-09-20T11:10:31.211Z,102674.78
2022-09-20T11:13:05.899Z,102683.63
2022-09-20T11:15:44.441Z,102683.84
2022-09-20T11:18:25.401Z,102679.34
2022-09-20T11:21:21.835Z,102684.69
2022-09-20T11:24:02.378Z,102691.69
2022-09-20T11:26:36.849Z,102686.69
2022-09-20T11:29:15.812Z,102689.59
2022-09-20T11:31:48.969Z,102693.34
2022-09-20T11:34:15.337Z,102696.97
2022-09-20T11:36:58.831Z,102690.75
2022-09-20T11:39:47.162Z,102700.09
2022-09-20T11:42:20.771Z,102694.72
2022-09-20T11:44:47.360Z,102688.38
2022-09-20T11:47:54.871Z,102702.06
2022-09-20T11:50:51.038Z,102698.44
2022-09-20T11:53:42.948Z,102705.94
2022-09-20T11:56:27.017Z,102699.47
2022-09-20T11:58:59.556Z,102697.56
2022-09-20T12:01:32.014Z,102704.91
2022-09-20T12:04:31.666Z,102702.69
2022-09-20T12:07:25.939Z,102699.16
2022-09-20T12:09:57.272Z,102697.06
2022-09-20T12:12:34.063Z,102704.38
2022-09-20T12:15:02.955Z,102688.78
2022-09-20T12:17:47.771Z,102702.56
2022-09-20T12:20:35.360Z,102696.06
2022-09-20T12:23:46.441Z,102700.56
2022-09-20T12:26:24.234Z,102697.97
2022-09-20T12:28:56.460Z,102700.06
2022-09-20T12:31:26.578Z,102701.38
2022-09-20T12:34:16.088Z,102703.19
2022-09-20T12:37:10.325Z,102705.44
2022-09-20T12:39:39.356Z,102704.31
2022-09-20T12:42:28.091Z,102695.66
2022-09-20T12:45:05.403Z,102699.97
2022-09-20T12:47:37.462Z,102699.41
2022-09-20T12:50:33.864Z,102698.34
2022-09-20T12:53:06.394Z,102699.38
2022-09-20T12:55:41.170Z,102697.25
2022-09-20T12:58:19.632Z,102693.41
2022-09-20T13:00:51.160Z,102702.47
2022-09-20T13:03:38.825Z,102696.63
2022-09-20T13:06:09.572Z,102701.97
2022-09-20T13:08:54.472Z,102697.56
2022-09-20T13:11:24.853Z,102702.75
2022-09-20T13:14:12.356Z,102706.09
2022-09-20T13:16:53.950Z,102702.38
2022-09-20T13:19:28.677Z,102705.75
2022-09-20T13:22:23.109Z,102711.66
2022-09-20T13:24:55.029Z,102706.59
2022-09-20T13:27:25.996Z,102702.28
2022-09-20T13:29:53.335Z,102705.75
2022-09-20T13:32:24.409Z,102701.25
2022-09-20T13:35:06.661Z,102706.41
2022-09-20T13:37:34.946Z,102702.31
2022-09-20T13:40:03.630Z,102701.47
2022-09-20T13:42:33.618Z,102707.16
2022-09-20T13:45:00.930Z,102708.91
2022-09-20T13:47:29.764Z,102709.56
2022-09-20T13:50:19.608Z,102703.72
2022-09-20T13:52:52.892Z,102705.22
2022-09-20T13:55:33.200Z,102709.47
2022-09-20T13:58:07.506Z,102711.81
2022-09-20T14:00:37.793Z,102703.53
2022-09-20T14:03:04.790Z,102688.28
2022-09-20T14:05:31.995Z,102703.88
2022-09-20T14:08:00.670Z,102698.25
2022-09-20T14:10:32.049Z,102704.97
2022-09-20T14:13:02.215Z,102697.22
2022-09-20T14:15:39.203Z,102704.88
2022-09-20T14:18:07.817Z,102693.94
2022-09-20T14:20:34.688Z,102700.88
2022-09-20T14:23:01.433Z,102701.91
2022-09-20T14:25:30.984Z,102702.91
2022-09-20T14:28:19.866Z,102702.06
2022-09-20T14:30:50.772Z,102699.63
2022-09-20T14:33:22.446Z,102700.56
2022-09-20T14:35:51.443Z,102707.25
2022-09-20T14:38:26.423Z,102703.28
2022-09-20T14:40:53.110Z,102704.53
2022-09-20T14:43:34.705Z,102705.31
2022-09-20T14:46:19.881Z,102702.91
2022-09-20T14:48:46.468Z,102703.19
2022-09-20T14:51:16.281Z,102705.09
2022-09-20T14:53:44.404Z,102701.47
2022-09-20T14:56:14.600Z,102704.31
2022-09-20T14:59:04.510Z,102707.09
2022-09-20T15:01:31.315Z,102695.91
2022-09-20T15:03:58.540Z,102701.97
2022-09-20T15:06:25.995Z,102695.63
2022-09-20T15:08:52.433Z,102691.03
2022-09-20T15:11:19.754Z,102698.03
2022-09-20T15:13:46.503Z,102704.59
2022-09-20T15:16:14.641Z,102702.69
2022-09-20T15:18:43.017Z,102700.25
2022-09-20T15:21:13.302Z,102698.38
2022-09-20T15:23:40.555Z,102694.22
2022-09-20T15:26:10.497Z,102694.16
2022-09-20T15:28:37.035Z,102703.94
2022-09-20T15:31:03.485Z,102688.69
2022-09-20T15:33:34.323Z,102692.84
2022-09-20T15:36:03.996Z,102692.28
2022-09-20T15:38:30.788Z,102691.91
2022-09-20T15:41:00.798Z,102691.34
2022-09-20T15:43:28.420Z,102692.94
2022-09-20T15:45:57.999Z,102685.84
2022-09-20T15:48:26.097Z,102688.72
2022-09-20T15:51:01.938Z,102691.31
2022-09-20T15:53:36.325Z,102693.59
2022-09-20T15:56:05.064Z,102680.84
2022-09-20T15:58:36.221Z,102692.78
2022-09-20T16:01:08.545Z,102697.06
2022-09-20T16:03:36.571Z,102690.34
2022-09-20T16:06:08.107Z,102688.72
2022-09-20T16:08:40.262Z,102687.28
2022-09-20T16:11:08.309Z,102692.13
2022-09-20T16:13:38.673Z,102699.09
2022-09-20T16:16:06.837Z,102688.97
2022-09-20T16:18:54.274Z,102694.84
2022-09-20T16:21:21.125Z,102697.22
2022-09-20T16:23:56.594Z,102699.38
2022-09-20T16:26:48.946Z,102706.88
2022-09-20T16:29:16.856Z,102708.38
2022-09-20T16:31:47.669Z,102711.13
2022-09-20T16:34:22.453Z,102704.41
2022-09-20T16:36:51.173Z,102711.81
2022-09-20T16:39:21.085Z,102717.34
2022-09-20T16:41:48.976Z,102717.38
2022-09-20T16:44:16.244Z,102713.84
2022-09-20T16:46:44.490Z,102714.19
2022-09-20T16:49:12.970Z,102721.34
2022-09-20T16:51:41.750Z,102721.16
2022-09-20T16:54:12.683Z,102733.22
2022-09-20T16:56:45.019Z,102729.88
2022-09-20T16:59:12.994Z,102731.75
2022-09-20T17:01:40.449Z,102726.94
2022-09-20T17:04:08.186Z,102737.78
2022-09-20T17:06:36.998Z,102737.16
2022-09-20T17:09:05.024Z,102735.59
2022-09-20T17:11:33.230Z,102741.19
2022-09-20T17:14:00.071Z,102746.44
2022-09-20T17:16:29.924Z,102746.59
2022-09-20T17:19:07.358Z,102747.78
2022-09-20T17:21:36.592Z,102749.94
2022-09-20T17:24:05.845Z,102745.63
2022-09-20T17:26:35.778Z,102753.91
2022-09-20T17:29:04.136Z,102758.47
2022-09-20T17:31:35.779Z,102753.53
2022-09-20T17:34:07.131Z,102769.53
2022-09-20T17:36:45.658Z,102762.22
2022-09-20T17:39:13.757Z,102769.19
2022-09-20T17:41:41.404Z,102758.59
2022-09-20T17:44:09.855Z,102766.38
2022-09-20T17:46:37.951Z,102772.47
2022-09-20T17:49:06.066Z,102773.25
2022-09-20T17:51:37.020Z,102775.84
2022-09-20T17:54:04.290Z,102773.34
2022-09-20T17:56:31.332Z,102774.50
2022-09-20T17:59:00.082Z,102771.13
2022-09-20T18:01:28.755Z,102781.22
2022-09-20T18:03:57.596Z,102778.19
2022-09-20T18:06:26.735Z,102783.59
2022-09-20T18:08:58.904Z,102787.50
2022-09-20T18:11:36.721Z,102780.38
2022-09-20T18:14:04.727Z,102788.94
2022-09-20T18:16:33.192Z,102787.50
2022-09-20T18:19:02.996Z,102789.69
2022-09-20T18:21:31.155Z,102795.22
2022-09-20T18:23:59.139Z,102790.75
2022-09-20T18:26:28.987Z,102789.69
2022-09-20T18:29:09.444Z,102794.22
2022-09-20T18:31:43.165Z,102797.25
2022-09-20T18:34:34.101Z,102796.94
2022-09-20T18:37:03.827Z,102792.63
2022-09-20T18:39:37.366Z,102805.72
2022-09-20T18:42:06.617Z,102801.03
2022-09-20T18:44:33.837Z,102803.41
2022-09-20T18:47:03.812Z,102807.59
2022-09-20T18:49:30.768Z,102801.47
2022-09-20T18:51:57.654Z,102812.06
2022-09-20T18:54:24.395Z,102804.13
2022-09-20T18:56:51.569Z,102808.88
2022-09-20T18:59:20.739Z,102812.13
2022-09-20T19:01:50.323Z,102817.25
2022-09-20T19:04:57.702Z,102818.84
2022-09-20T19:07:27.151Z,102822.28
2022-09-20T19:09:59.632Z,102824.81
2022-09-20T19:12:39.920Z,102828.28
2022-09-20T19:15:16.003Z,102824.97
2022-09-20T19:17:53.568Z,102821.69
2022-09-20T19:20:42.504Z,102820.50
2022-09-20T19:23:36.714Z,102826.69
2022-09-20T19:26:24.692Z,102826.69
2022-09-20T19:28:57.127Z,102826.13
2022-09-20T19:31:23.786Z,102826.97
2022-09-20T19:33:53.904Z,102834.84
2022-09-20T19:36:24.780Z,102832.44
2022-09-20T19:39:13.148Z,102842.75
2022-09-20T19:42:07.197Z,102845.41
2022-09-20T19:44:33.928Z,102835.91
2022-09-20T19:47:19.109Z,102840.25
2022-09-20T19:49:48.885Z,102847.28
2022-09-20T19:52:18.645Z,102850.91
2022-09-20T19:54:46.867Z,102851.16
2022-09-20T19:57:43.135Z,102857.97
2022-09-20T20:00:15.751Z,102870.25
2022-09-20T20:02:45.994Z,102863.84
2022-09-20T20:05:20.441Z,102867.22
2022-09-20T20:08:04.484Z,102862.91
2022-09-20T20:10:45.908Z,102872.84
2022-09-20T20:13:37.502Z,102869.72
2022-09-20T20:16:14.307Z,102870.97
2022-09-20T20:18:46.812Z,102873.84
2022-09-20T20:21:38.798Z,102880.09
2022-09-20T20:24:24.580Z,102884.50
2022-09-20T20:26:51.315Z,102877.50
2022-09-20T20:29:17.921Z,102861.97
2022-09-20T20:31:44.418Z,102882.91
2022-09-20T20:34:13.756Z,102883.63
2022-09-20T20:36:40.199Z,102868.00
2022-09-20T20:39:06.869Z,102883.63
2022-09-20T20:41:33.389Z,102878.31
2022-09-20T20:44:00.107Z,102871.31
2022-09-20T20:46:26.944Z,102875.72
2022-09-20T20:48:53.631Z,102882.47
2022-09-20T20:51:22.154Z,102880.69
2022-09-20T20:53:54.359Z,102884.44
2022-09-20T20:56:22.976Z,102891.84
2022-09-20T20:58:57.654Z,102887.31
2022-09-20T21:01:30.056Z,102891.56
2022-09-20T21:03:58.373Z,102891.56
2022-09-20T21:06:27.829Z,102896.81
2022-09-20T21:08:54.446Z,102901.06
2022-09-20T21:11:23.780Z,102893.88
2022-09-20T21:13:57.894Z,102893.78
2022-09-20T21:16:26.646Z,102897.53
2022-09-20T21:18:53.120Z,102905.81
2022-09-20T21:21:39.455Z,102907.75
2022-09-20T21:24:07.329Z,102911.28
2022-09-20T21:26:35.505Z,102903.16
2022-09-20T21:29:03.441Z,102913.16
2022-09-20T21:31:32.757Z,102906.97
2022-09-20T21:33:59.626Z,102905.38
2022-09-20T21:36:30.143Z,102912.44
2022-09-20T21:38:56.962Z,102909.13
2022-09-20T21:41:34.750Z,102910.97
2022-09-20T21:44:03.411Z,102911.25
2022-09-20T21:46:35.113Z,102907.94
2022-09-20T21:49:05.910Z,102914.47
2022-09-20T21:51:33.286Z,102913.06
2022-09-20T21:54:01.539Z,102911.66
2022-09-20T21:56:33.465Z,102916.63
2022-09-20T21:59:02.043Z,102918.88
2022-09-20T22:01:29.650Z,102914.03
2022-09-20T22:04:00.124Z,102914.53
2022-09-20T22:06:29.259Z,102916.59
2022-09-20T22:09:01.975Z,102922.16
2022-09-20T22:11:31.110Z,102925.38
2022-09-20T22:14:01.436Z,102919.56
2022-09-20T22:16:30.184Z,102920.03
2022-09-20T22:18:57.249Z,102924.81
2022-09-20T22:21:26.727Z,102923.38
2022-09-20T22:23:58.587Z,102926.28
2022-09-20T22:26:28.560Z,102924.69
2022-09-20T22:28:55.038Z,102916.09
2022-09-20T22:31:23.993Z,102920.72
2022-09-20T22:33:52.972Z,102926.09
2022-09-20T22:36:22.089Z,102925.53
2022-09-20T22:38:48.975Z,102933.78
2022-09-20T22:41:17.534Z,102933.13
2022-09-20T22:43:44.397Z,102935.16
2022-09-20T22:46:20.164Z,102928.22
2022-09-20T22:48:48.000Z,102930.00
2022-09-20T22:51:22.887Z,102929.38
2022-09-20T22:53:52.306Z,102932.25
2022-09-20T22:56:29.278Z,102936.03
2022-09-20T22:59:02.977Z,102939.75
2022-09-20T23:01:31.981Z,102933.69
2022-09-20T23:04:20.173Z,102938.16
2022-09-20T23:06:56.704Z,102937.38
2022-09-20T23:09:25.220Z,102937.41
2022-09-20T23:11:51.850Z,102941.84
2022-09-20T23:14:20.208Z,102941.03
2022-09-20T23:16:47.704Z,102938.38
2022-09-20T23:19:14.443Z,102943.75
2022-09-20T23:21:42.655Z,102933.28
2022-09-20T23:24:12.485Z,102935.03
2022-09-20T23:26:40.046Z,102934.97
2022-09-20T23:29:09.284Z,102932.97
2022-09-20T23:31:37.118Z,102937.31
2022-09-20T23:34:05.863Z,102936.59
2022-09-20T23:36:38.012Z,102942.88
2022-09-20T23:39:06.956Z,102935.03
2022-09-20T23:41:33.990Z,102936.75
2022-09-20T23:44:00.717Z,102940.50
2022-09-20T23:46:27.493Z,102940.59
2022-09-20T23:48:54.437Z,102948.59
2022-09-20T23:51:23.580Z,102942.53
2022-09-20T23:53:51.655Z,102944.38
2022-09-20T23:56:19.164Z,102946.38
2022-09-20T23:58:46.139Z,102945.75
